sensor_id;sensor_type;location;lat;lon;timestamp;P1;durP1;ratioP1;P2;durP2;ratioP2
78555;SDS011;67851;51.354;7.744;2023-03-04T00:02:16;30.75;;;15.48;;
78555;SDS011;67851;51.354;7.744;2023-03-04T00:04:42;35.03;;;14.20;;
78555;SDS011;67851;51.354;7.744;2023-03-04T00:07:08;34.95;;;15.25;;
78555;SDS011;67851;51.354;7.744;2023-03-04T00:09:33;31.45;;;15.02;;
78555;SDS011;67851;51.354;7.744;2023-03-04T00:11:59;36.92;;;14.88;;
78555;SDS011;67851;51.354;7.744;2023-03-04T00:14:24;39.53;;;16.70;;
78555;SDS011;67851;51.354;7.744;2023-03-04T00:16:50;31.52;;;16.20;;
78555;SDS011;67851;51.354;7.744;2023-03-04T00:19:16;31.30;;;17.00;;
78555;SDS011;67851;51.354;7.744;2023-03-04T00:21:41;36.08;;;16.35;;
78555;SDS011;67851;51.354;7.744;2023-03-04T00:24:07;39.15;;;16.67;;
78555;SDS011;67851;51.354;7.744;2023-03-04T00:26:32;37.50;;;16.75;;
78555;SDS011;67851;51.354;7.744;2023-03-04T00:28:58;41.83;;;17.67;;
78555;SDS011;67851;51.354;7.744;2023-03-04T00:31:24;32.63;;;13.88;;
78555;SDS011;67851;51.354;7.744;2023-03-04T00:33:50;32.10;;;15.73;;
78555;SDS011;67851;51.354;7.744;2023-03-04T00:36:16;33.47;;;15.98;;
78555;SDS011;67851;51.354;7.744;2023-03-04T00:38:41;40.70;;;16.33;;
78555;SDS011;67851;51.354;7.744;2023-03-04T00:41:07;37.65;;;16.45;;
78555;SDS011;67851;51.354;7.744;2023-03-04T00:43:32;32.55;;;15.27;;
78555;SDS011;67851;51.354;7.744;2023-03-04T00:45:58;35.90;;;16.50;;
78555;SDS011;67851;51.354;7.744;2023-03-04T00:48:24;34.05;;;14.40;;
78555;SDS011;67851;51.354;7.744;2023-03-04T00:50:49;33.58;;;14.73;;
78555;SDS011;67851;51.354;7.744;2023-03-04T00:53:17;35.92;;;12.88;;
78555;SDS011;67851;51.354;7.744;2023-03-04T00:55:43;36.90;;;14.50;;
78555;SDS011;67851;51.354;7.744;2023-03-04T00:58:09;34.80;;;14.75;;
78555;SDS011;67851;51.354;7.744;2023-03-04T01:00:34;34.58;;;14.88;;
78555;SDS011;67851;51.354;7.744;2023-03-04T01:03:00;38.45;;;13.85;;
78555;SDS011;67851;51.354;7.744;2023-03-04T01:05:25;40.90;;;14.88;;
78555;SDS011;67851;51.354;7.744;2023-03-04T01:07:52;31.67;;;13.50;;
78555;SDS011;67851;51.354;7.744;2023-03-04T01:10:18;30.77;;;13.38;;
78555;SDS011;67851;51.354;7.744;2023-03-04T01:12:44;34.80;;;13.57;;
78555;SDS011;67851;51.354;7.744;2023-03-04T01:15:11;30.17;;;12.10;;
78555;SDS011;67851;51.354;7.744;2023-03-04T01:17:38;26.58;;;11.07;;
78555;SDS011;67851;51.354;7.744;2023-03-04T01:20:04;29.58;;;10.45;;
78555;SDS011;67851;51.354;7.744;2023-03-04T01:22:30;25.00;;;10.30;;
78555;SDS011;67851;51.354;7.744;2023-03-04T01:24:56;32.00;;;11.35;;
78555;SDS011;67851;51.354;7.744;2023-03-04T01:27:21;36.17;;;13.43;;
78555;SDS011;67851;51.354;7.744;2023-03-04T01:29:48;33.45;;;12.27;;
78555;SDS011;67851;51.354;7.744;2023-03-04T01:32:14;34.15;;;12.32;;
78555;SDS011;67851;51.354;7.744;2023-03-04T01:34:40;29.67;;;11.90;;
78555;SDS011;67851;51.354;7.744;2023-03-04T01:37:06;36.20;;;12.85;;
78555;SDS011;67851;51.354;7.744;2023-03-04T01:39:33;25.30;;;11.48;;
78555;SDS011;67851;51.354;7.744;2023-03-04T01:41:59;29.38;;;11.98;;
78555;SDS011;67851;51.354;7.744;2023-03-04T01:44:25;29.13;;;11.35;;
78555;SDS011;67851;51.354;7.744;2023-03-04T01:46:51;29.65;;;11.13;;
78555;SDS011;67851;51.354;7.744;2023-03-04T01:49:18;35.72;;;12.30;;
78555;SDS011;67851;51.354;7.744;2023-03-04T01:51:47;28.85;;;10.85;;
78555;SDS011;67851;51.354;7.744;2023-03-04T01:54:16;32.45;;;10.68;;
78555;SDS011;67851;51.354;7.744;2023-03-04T01:56:43;30.60;;;9.88;;
78555;SDS011;67851;51.354;7.744;2023-03-04T01:59:11;27.80;;;9.95;;
78555;SDS011;67851;51.354;7.744;2023-03-04T02:04:21;33.75;;;10.63;;
78555;SDS011;67851;51.354;7.744;2023-03-04T02:06:49;30.92;;;10.57;;
78555;SDS011;67851;51.354;7.744;2023-03-04T02:09:15;32.22;;;10.32;;
78555;SDS011;67851;51.354;7.744;2023-03-04T02:11:43;32.60;;;10.88;;
78555;SDS011;67851;51.354;7.744;2023-03-04T02:14:10;39.50;;;12.07;;
78555;SDS011;67851;51.354;7.744;2023-03-04T02:16:36;36.42;;;10.18;;
78555;SDS011;67851;51.354;7.744;2023-03-04T02:19:04;31.13;;;10.88;;
78555;SDS011;67851;51.354;7.744;2023-03-04T02:21:32;34.90;;;10.88;;
78555;SDS011;67851;51.354;7.744;2023-03-04T02:26:30;24.05;;;9.15;;
78555;SDS011;67851;51.354;7.744;2023-03-04T02:28:58;29.85;;;10.85;;
78555;SDS011;67851;51.354;7.744;2023-03-04T02:31:35;36.53;;;12.50;;
78555;SDS011;67851;51.354;7.744;2023-03-04T02:34:03;33.30;;;12.43;;
78555;SDS011;67851;51.354;7.744;2023-03-04T02:36:31;25.33;;;8.15;;
78555;SDS011;67851;51.354;7.744;2023-03-04T02:39:03;30.88;;;10.48;;
78555;SDS011;67851;51.354;7.744;2023-03-04T02:41:31;33.30;;;10.60;;
78555;SDS011;67851;51.354;7.744;2023-03-04T02:43:58;33.38;;;9.90;;
78555;SDS011;67851;51.354;7.744;2023-03-04T02:46:25;27.90;;;9.10;;
78555;SDS011;67851;51.354;7.744;2023-03-04T02:48:51;31.70;;;10.00;;
78555;SDS011;67851;51.354;7.744;2023-03-04T02:51:17;31.05;;;9.57;;
78555;SDS011;67851;51.354;7.744;2023-03-04T02:53:43;35.58;;;9.18;;
78555;SDS011;67851;51.354;7.744;2023-03-04T02:56:10;35.70;;;8.38;;
78555;SDS011;67851;51.354;7.744;2023-03-04T02:58:36;38.20;;;9.15;;
78555;SDS011;67851;51.354;7.744;2023-03-04T03:01:04;32.95;;;9.10;;
78555;SDS011;67851;51.354;7.744;2023-03-04T03:03:30;36.25;;;8.70;;
78555;SDS011;67851;51.354;7.744;2023-03-04T03:05:56;36.22;;;9.77;;
78555;SDS011;67851;51.354;7.744;2023-03-04T03:08:22;23.83;;;8.98;;
78555;SDS011;67851;51.354;7.744;2023-03-04T03:10:48;25.90;;;7.88;;
78555;SDS011;67851;51.354;7.744;2023-03-04T03:13:14;34.20;;;9.77;;
78555;SDS011;67851;51.354;7.744;2023-03-04T03:15:40;30.42;;;9.32;;
78555;SDS011;67851;51.354;7.744;2023-03-04T03:18:10;31.95;;;8.65;;
78555;SDS011;67851;51.354;7.744;2023-03-04T03:20:36;30.30;;;9.32;;
78555;SDS011;67851;51.354;7.744;2023-03-04T03:23:02;32.83;;;8.13;;
78555;SDS011;67851;51.354;7.744;2023-03-04T03:25:28;31.27;;;7.75;;
78555;SDS011;67851;51.354;7.744;2023-03-04T03:27:54;32.47;;;7.07;;
78555;SDS011;67851;51.354;7.744;2023-03-04T03:30:20;36.22;;;9.02;;
78555;SDS011;67851;51.354;7.744;2023-03-04T03:32:45;21.40;;;6.68;;
78555;SDS011;67851;51.354;7.744;2023-03-04T03:35:12;31.98;;;7.18;;
78555;SDS011;67851;51.354;7.744;2023-03-04T03:37:38;25.85;;;6.72;;
78555;SDS011;67851;51.354;7.744;2023-03-04T03:40:04;30.35;;;6.80;;
78555;SDS011;67851;51.354;7.744;2023-03-04T03:42:30;32.20;;;7.63;;
78555;SDS011;67851;51.354;7.744;2023-03-04T03:44:55;26.33;;;7.40;;
78555;SDS011;67851;51.354;7.744;2023-03-04T03:47:22;31.40;;;6.60;;
78555;SDS011;67851;51.354;7.744;2023-03-04T03:49:48;40.50;;;8.20;;
78555;SDS011;67851;51.354;7.744;2023-03-04T03:52:14;36.38;;;8.88;;
78555;SDS011;67851;51.354;7.744;2023-03-04T03:54:39;32.83;;;8.13;;
78555;SDS011;67851;51.354;7.744;2023-03-04T03:57:05;38.13;;;10.75;;
78555;SDS011;67851;51.354;7.744;2023-03-04T03:59:31;42.60;;;10.77;;
78555;SDS011;67851;51.354;7.744;2023-03-04T04:01:56;30.35;;;9.43;;
78555;SDS011;67851;51.354;7.744;2023-03-04T04:04:22;37.75;;;9.75;;
78555;SDS011;67851;51.354;7.744;2023-03-04T04:06:47;38.28;;;9.40;;
78555;SDS011;67851;51.354;7.744;2023-03-04T04:09:13;35.42;;;8.20;;
78555;SDS011;67851;51.354;7.744;2023-03-04T04:11:39;30.65;;;8.25;;
78555;SDS011;67851;51.354;7.744;2023-03-04T04:14:04;26.52;;;8.65;;
78555;SDS011;67851;51.354;7.744;2023-03-04T04:16:30;31.75;;;7.38;;
78555;SDS011;67851;51.354;7.744;2023-03-04T04:18:56;33.28;;;6.88;;
78555;SDS011;67851;51.354;7.744;2023-03-04T04:21:21;32.50;;;8.57;;
78555;SDS011;67851;51.354;7.744;2023-03-04T04:23:48;35.65;;;6.97;;
78555;SDS011;67851;51.354;7.744;2023-03-04T04:26:14;32.47;;;6.85;;
78555;SDS011;67851;51.354;7.744;2023-03-04T04:28:40;37.75;;;7.80;;
78555;SDS011;67851;51.354;7.744;2023-03-04T04:31:06;24.35;;;6.47;;
78555;SDS011;67851;51.354;7.744;2023-03-04T04:33:33;29.90;;;7.05;;
78555;SDS011;67851;51.354;7.744;2023-03-04T04:35:59;33.38;;;7.10;;
78555;SDS011;67851;51.354;7.744;2023-03-04T04:38:25;27.52;;;6.95;;
78555;SDS011;67851;51.354;7.744;2023-03-04T04:40:51;30.38;;;6.70;;
78555;SDS011;67851;51.354;7.744;2023-03-04T04:43:16;25.45;;;6.25;;
78555;SDS011;67851;51.354;7.744;2023-03-04T04:45:42;24.73;;;6.07;;
78555;SDS011;67851;51.354;7.744;2023-03-04T04:48:08;26.52;;;5.75;;
78555;SDS011;67851;51.354;7.744;2023-03-04T04:50:33;30.73;;;5.50;;
78555;SDS011;67851;51.354;7.744;2023-03-04T04:52:59;17.05;;;5.05;;
78555;SDS011;67851;51.354;7.744;2023-03-04T04:55:25;29.85;;;5.13;;
78555;SDS011;67851;51.354;7.744;2023-03-04T04:57:51;20.88;;;5.22;;
78555;SDS011;67851;51.354;7.744;2023-03-04T05:00:16;25.10;;;5.22;;
78555;SDS011;67851;51.354;7.744;2023-03-04T05:02:43;22.30;;;4.63;;
78555;SDS011;67851;51.354;7.744;2023-03-04T05:05:08;30.65;;;4.82;;
78555;SDS011;67851;51.354;7.744;2023-03-04T05:07:34;24.98;;;5.03;;
78555;SDS011;67851;51.354;7.744;2023-03-04T05:10:00;20.70;;;4.43;;
78555;SDS011;67851;51.354;7.744;2023-03-04T05:12:25;19.77;;;5.18;;
78555;SDS011;67851;51.354;7.744;2023-03-04T05:14:51;31.05;;;6.25;;
78555;SDS011;67851;51.354;7.744;2023-03-04T05:17:16;22.35;;;5.57;;
78555;SDS011;67851;51.354;7.744;2023-03-04T05:19:42;21.45;;;4.40;;
78555;SDS011;67851;51.354;7.744;2023-03-04T05:22:07;27.10;;;5.57;;
78555;SDS011;67851;51.354;7.744;2023-03-04T05:24:33;25.25;;;4.88;;
78555;SDS011;67851;51.354;7.744;2023-03-04T05:26:59;36.35;;;5.82;;
78555;SDS011;67851;51.354;7.744;2023-03-04T05:29:26;25.58;;;4.22;;
78555;SDS011;67851;51.354;7.744;2023-03-04T05:31:51;25.88;;;5.60;;
78555;SDS011;67851;51.354;7.744;2023-03-04T05:34:17;25.13;;;8.02;;
78555;SDS011;67851;51.354;7.744;2023-03-04T05:36:43;17.60;;;4.68;;
78555;SDS011;67851;51.354;7.744;2023-03-04T05:39:09;21.65;;;4.78;;
78555;SDS011;67851;51.354;7.744;2023-03-04T05:41:34;23.40;;;5.78;;
78555;SDS011;67851;51.354;7.744;2023-03-04T05:44:00;24.67;;;4.25;;
78555;SDS011;67851;51.354;7.744;2023-03-04T05:46:25;29.90;;;5.90;;
78555;SDS011;67851;51.354;7.744;2023-03-04T05:48:51;28.70;;;4.97;;
78555;SDS011;67851;51.354;7.744;2023-03-04T05:51:17;16.08;;;4.43;;
78555;SDS011;67851;51.354;7.744;2023-03-04T05:53:43;18.70;;;5.07;;
78555;SDS011;67851;51.354;7.744;2023-03-04T05:56:09;21.88;;;5.13;;
78555;SDS011;67851;51.354;7.744;2023-03-04T05:58:37;20.25;;;4.78;;
78555;SDS011;67851;51.354;7.744;2023-03-04T06:01:03;19.88;;;4.10;;
78555;SDS011;67851;51.354;7.744;2023-03-04T06:03:29;26.55;;;4.60;;
78555;SDS011;67851;51.354;7.744;2023-03-04T06:05:54;25.05;;;4.97;;
78555;SDS011;67851;51.354;7.744;2023-03-04T06:08:20;27.83;;;6.13;;
78555;SDS011;67851;51.354;7.744;2023-03-04T06:10:45;27.13;;;5.05;;
78555;SDS011;67851;51.354;7.744;2023-03-04T06:13:11;20.40;;;4.88;;
78555;SDS011;67851;51.354;7.744;2023-03-04T06:15:37;25.88;;;5.03;;
78555;SDS011;67851;51.354;7.744;2023-03-04T06:18:03;21.27;;;4.25;;
78555;SDS011;67851;51.354;7.744;2023-03-04T06:20:29;19.10;;;5.50;;
78555;SDS011;67851;51.354;7.744;2023-03-04T06:22:55;24.02;;;5.18;;
78555;SDS011;67851;51.354;7.744;2023-03-04T06:25:21;26.42;;;4.85;;
78555;SDS011;67851;51.354;7.744;2023-03-04T06:27:47;16.92;;;4.55;;
78555;SDS011;67851;51.354;7.744;2023-03-04T06:30:13;24.73;;;5.18;;
78555;SDS011;67851;51.354;7.744;2023-03-04T06:32:39;15.68;;;4.57;;
78555;SDS011;67851;51.354;7.744;2023-03-04T06:35:05;27.75;;;5.57;;
78555;SDS011;67851;51.354;7.744;2023-03-04T06:37:30;20.67;;;4.38;;
78555;SDS011;67851;51.354;7.744;2023-03-04T06:39:56;28.50;;;5.30;;
78555;SDS011;67851;51.354;7.744;2023-03-04T06:42:22;26.13;;;7.32;;
78555;SDS011;67851;51.354;7.744;2023-03-04T06:44:47;28.95;;;8.43;;
78555;SDS011;67851;51.354;7.744;2023-03-04T06:47:13;15.82;;;5.38;;
78555;SDS011;67851;51.354;7.744;2023-03-04T06:49:40;22.17;;;5.30;;
78555;SDS011;67851;51.354;7.744;2023-03-04T06:52:05;21.23;;;4.30;;
78555;SDS011;67851;51.354;7.744;2023-03-04T06:54:31;17.80;;;4.07;;
78555;SDS011;67851;51.354;7.744;2023-03-04T06:56:56;17.33;;;4.55;;
78555;SDS011;67851;51.354;7.744;2023-03-04T06:59:22;18.63;;;4.30;;
78555;SDS011;67851;51.354;7.744;2023-03-04T07:01:47;12.50;;;3.90;;
78555;SDS011;67851;51.354;7.744;2023-03-04T07:04:13;20.42;;;4.68;;
78555;SDS011;67851;51.354;7.744;2023-03-04T07:06:39;21.73;;;5.82;;
78555;SDS011;67851;51.354;7.744;2023-03-04T07:09:04;21.40;;;4.65;;
78555;SDS011;67851;51.354;7.744;2023-03-04T07:11:30;25.58;;;4.72;;
78555;SDS011;67851;51.354;7.744;2023-03-04T07:13:56;25.08;;;4.40;;
78555;SDS011;67851;51.354;7.744;2023-03-04T07:16:22;21.88;;;4.85;;
78555;SDS011;67851;51.354;7.744;2023-03-04T07:18:48;22.67;;;3.90;;
78555;SDS011;67851;51.354;7.744;2023-03-04T07:21:13;27.25;;;4.50;;
78555;SDS011;67851;51.354;7.744;2023-03-04T07:23:40;20.35;;;4.35;;
78555;SDS011;67851;51.354;7.744;2023-03-04T07:26:06;21.17;;;4.32;;
78555;SDS011;67851;51.354;7.744;2023-03-04T07:28:32;15.63;;;4.03;;
78555;SDS011;67851;51.354;7.744;2023-03-04T07:34:04;20.42;;;4.57;;
78555;SDS011;67851;51.354;7.744;2023-03-04T07:36:32;21.67;;;4.57;;
78555;SDS011;67851;51.354;7.744;2023-03-04T07:38:58;28.90;;;5.03;;
78555;SDS011;67851;51.354;7.744;2023-03-04T07:41:24;29.10;;;4.80;;
78555;SDS011;67851;51.354;7.744;2023-03-04T07:43:51;20.60;;;5.68;;
78555;SDS011;67851;51.354;7.744;2023-03-04T07:46:17;23.02;;;4.57;;
78555;SDS011;67851;51.354;7.744;2023-03-04T07:48:43;22.88;;;4.15;;
78555;SDS011;67851;51.354;7.744;2023-03-04T07:53:36;14.45;;;4.38;;
78555;SDS011;67851;51.354;7.744;2023-03-04T07:56:04;18.80;;;3.92;;
78555;SDS011;67851;51.354;7.744;2023-03-04T07:58:30;13.13;;;4.18;;
78555;SDS011;67851;51.354;7.744;2023-03-04T08:00:56;25.05;;;6.78;;
78555;SDS011;67851;51.354;7.744;2023-03-04T08:03:22;14.90;;;4.78;;
78555;SDS011;67851;51.354;7.744;2023-03-04T08:05:48;26.17;;;4.72;;
78555;SDS011;67851;51.354;7.744;2023-03-04T08:08:14;26.83;;;4.68;;
78555;SDS011;67851;51.354;7.744;2023-03-04T08:10:39;21.30;;;4.68;;
78555;SDS011;67851;51.354;7.744;2023-03-04T08:13:06;21.67;;;5.15;;
78555;SDS011;67851;51.354;7.744;2023-03-04T08:15:32;22.38;;;4.85;;
78555;SDS011;67851;51.354;7.744;2023-03-04T08:17:59;17.42;;;4.80;;
78555;SDS011;67851;51.354;7.744;2023-03-04T08:20:25;21.95;;;5.20;;
78555;SDS011;67851;51.354;7.744;2023-03-04T08:22:52;25.48;;;5.80;;
78555;SDS011;67851;51.354;7.744;2023-03-04T08:25:18;25.83;;;5.45;;
78555;SDS011;67851;51.354;7.744;2023-03-04T08:27:43;22.85;;;5.03;;
78555;SDS011;67851;51.354;7.744;2023-03-04T08:30:09;17.75;;;5.18;;
78555;SDS011;67851;51.354;7.744;2023-03-04T08:32:35;17.98;;;5.05;;
78555;SDS011;67851;51.354;7.744;2023-03-04T08:35:01;17.83;;;4.47;;
78555;SDS011;67851;51.354;7.744;2023-03-04T08:37:29;15.32;;;4.90;;
78555;SDS011;67851;51.354;7.744;2023-03-04T08:39:55;18.95;;;5.55;;
78555;SDS011;67851;51.354;7.744;2023-03-04T08:42:20;18.13;;;4.22;;
78555;SDS011;67851;51.354;7.744;2023-03-04T08:44:48;24.02;;;5.50;;
78555;SDS011;67851;51.354;7.744;2023-03-04T08:47:15;19.98;;;6.60;;
78555;SDS011;67851;51.354;7.744;2023-03-04T08:49:40;17.27;;;5.45;;
78555;SDS011;67851;51.354;7.744;2023-03-04T08:52:06;16.48;;;5.15;;
78555;SDS011;67851;51.354;7.744;2023-03-04T08:54:32;16.90;;;4.95;;
78555;SDS011;67851;51.354;7.744;2023-03-04T08:56:57;19.30;;;5.22;;
78555;SDS011;67851;51.354;7.744;2023-03-04T08:59:23;17.23;;;4.50;;
78555;SDS011;67851;51.354;7.744;2023-03-04T09:01:48;11.85;;;3.47;;
78555;SDS011;67851;51.354;7.744;2023-03-04T09:04:14;10.68;;;3.03;;
78555;SDS011;67851;51.354;7.744;2023-03-04T09:06:39;19.38;;;3.25;;
78555;SDS011;67851;51.354;7.744;2023-03-04T09:09:05;11.48;;;3.28;;
78555;SDS011;67851;51.354;7.744;2023-03-04T09:11:30;10.00;;;3.50;;
78555;SDS011;67851;51.354;7.744;2023-03-04T09:13:56;10.52;;;3.33;;
78555;SDS011;67851;51.354;7.744;2023-03-04T09:16:22;12.68;;;3.28;;
78555;SDS011;67851;51.354;7.744;2023-03-04T09:18:47;12.50;;;3.10;;
78555;SDS011;67851;51.354;7.744;2023-03-04T09:21:13;8.82;;;2.85;;
78555;SDS011;67851;51.354;7.744;2023-03-04T09:23:38;13.93;;;2.85;;
78555;SDS011;67851;51.354;7.744;2023-03-04T09:28:39;6.05;;;2.35;;
78555;SDS011;67851;51.354;7.744;2023-03-04T09:31:09;11.65;;;3.25;;
78555;SDS011;67851;51.354;7.744;2023-03-04T09:33:36;7.15;;;2.70;;
78555;SDS011;67851;51.354;7.744;2023-03-04T09:36:02;11.35;;;2.95;;
78555;SDS011;67851;51.354;7.744;2023-03-04T09:38:28;8.10;;;2.15;;
78555;SDS011;67851;51.354;7.744;2023-03-04T09:40:54;10.07;;;3.10;;
78555;SDS011;67851;51.354;7.744;2023-03-04T09:43:24;8.98;;;3.58;;
78555;SDS011;67851;51.354;7.744;2023-03-04T09:45:55;13.45;;;5.03;;
78555;SDS011;67851;51.354;7.744;2023-03-04T09:48:23;12.48;;;4.20;;
78555;SDS011;67851;51.354;7.744;2023-03-04T09:51:01;13.85;;;3.75;;
78555;SDS011;67851;51.354;7.744;2023-03-04T09:56:02;19.83;;;4.00;;
78555;SDS011;67851;51.354;7.744;2023-03-04T09:58:45;11.23;;;4.18;;
78555;SDS011;67851;51.354;7.744;2023-03-04T10:03:46;13.95;;;4.53;;
78555;SDS011;67851;51.354;7.744;2023-03-04T10:06:17;11.05;;;4.60;;
78555;SDS011;67851;51.354;7.744;2023-03-04T10:08:44;8.90;;;3.75;;
78555;SDS011;67851;51.354;7.744;2023-03-04T10:11:36;8.63;;;3.67;;
78555;SDS011;67851;51.354;7.744;2023-03-04T10:16:48;11.05;;;4.10;;
78555;SDS011;67851;51.354;7.744;2023-03-04T10:21:50;16.20;;;5.15;;
78555;SDS011;67851;51.354;7.744;2023-03-04T10:24:16;12.40;;;4.93;;
78555;SDS011;67851;51.354;7.744;2023-03-04T10:26:45;20.88;;;7.65;;
78555;SDS011;67851;51.354;7.744;2023-03-04T10:29:16;15.88;;;4.95;;
78555;SDS011;67851;51.354;7.744;2023-03-04T10:34:10;16.88;;;5.85;;
78555;SDS011;67851;51.354;7.744;2023-03-04T10:41:55;18.83;;;5.80;;
78555;SDS011;67851;51.354;7.744;2023-03-04T10:44:29;17.50;;;6.75;;
78555;SDS011;67851;51.354;7.744;2023-03-04T10:46:56;17.48;;;7.45;;
78555;SDS011;67851;51.354;7.744;2023-03-04T10:49:23;25.00;;;8.85;;
78555;SDS011;67851;51.354;7.744;2023-03-04T10:57:20;19.65;;;9.05;;
78555;SDS011;67851;51.354;7.744;2023-03-04T11:02:22;15.80;;;8.35;;
78555;SDS011;67851;51.354;7.744;2023-03-04T11:04:51;23.42;;;8.05;;
78555;SDS011;67851;51.354;7.744;2023-03-04T11:07:23;15.18;;;7.75;;
78555;SDS011;67851;51.354;7.744;2023-03-04T11:09:50;16.85;;;6.40;;
78555;SDS011;67851;51.354;7.744;2023-03-04T11:12:17;12.00;;;5.75;;
78555;SDS011;67851;51.354;7.744;2023-03-04T11:14:48;12.00;;;6.75;;
78555;SDS011;67851;51.354;7.744;2023-03-04T11:17:25;12.95;;;6.88;;
78555;SDS011;67851;51.354;7.744;2023-03-04T11:20:00;12.27;;;6.18;;
78555;SDS011;67851;51.354;7.744;2023-03-04T11:25:26;15.60;;;6.57;;
78555;SDS011;67851;51.354;7.744;2023-03-04T11:27:58;14.57;;;7.35;;
78555;SDS011;67851;51.354;7.744;2023-03-04T11:30:48;20.70;;;8.13;;
78555;SDS011;67851;51.354;7.744;2023-03-04T11:33:23;13.65;;;7.40;;
78555;SDS011;67851;51.354;7.744;2023-03-04T11:36:02;16.88;;;7.18;;
78555;SDS011;67851;51.354;7.744;2023-03-04T11:38:42;18.98;;;8.57;;
78555;SDS011;67851;51.354;7.744;2023-03-04T11:43:49;17.92;;;10.00;;
78555;SDS011;67851;51.354;7.744;2023-03-04T11:51:11;12.77;;;9.15;;
78555;SDS011;67851;51.354;7.744;2023-03-04T11:53:53;14.05;;;8.88;;
78555;SDS011;67851;51.354;7.744;2023-03-04T12:13:39;15.60;;;8.15;;
78555;SDS011;67851;51.354;7.744;2023-03-04T12:16:18;10.75;;;6.47;;
78555;SDS011;67851;51.354;7.744;2023-03-04T12:24:22;13.00;;;6.97;;
78555;SDS011;67851;51.354;7.744;2023-03-04T12:35:11;15.45;;;8.77;;
78555;SDS011;67851;51.354;7.744;2023-03-04T12:38:02;16.70;;;9.93;;
78555;SDS011;67851;51.354;7.744;2023-03-04T12:40:46;20.08;;;11.13;;
78555;SDS011;67851;51.354;7.744;2023-03-04T12:48:31;18.60;;;11.70;;
78555;SDS011;67851;51.354;7.744;2023-03-04T12:56:26;20.52;;;13.38;;
78555;SDS011;67851;51.354;7.744;2023-03-04T12:59:02;17.50;;;11.45;;
78555;SDS011;67851;51.354;7.744;2023-03-04T13:01:45;17.88;;;10.75;;
78555;SDS011;67851;51.354;7.744;2023-03-04T13:04:28;15.73;;;9.73;;
78555;SDS011;67851;51.354;7.744;2023-03-04T13:07:07;19.77;;;10.82;;
78555;SDS011;67851;51.354;7.744;2023-03-04T13:09:57;18.73;;;10.73;;
78555;SDS011;67851;51.354;7.744;2023-03-04T13:12:40;15.40;;;10.57;;
78555;SDS011;67851;51.354;7.744;2023-03-04T13:15:25;12.60;;;9.30;;
78555;SDS011;67851;51.354;7.744;2023-03-04T13:17:53;14.73;;;9.88;;
78555;SDS011;67851;51.354;7.744;2023-03-04T13:28:25;15.35;;;11.05;;
78555;SDS011;67851;51.354;7.744;2023-03-04T13:35:50;15.40;;;10.20;;
78555;SDS011;67851;51.354;7.744;2023-03-04T13:43:36;13.90;;;9.40;;
78555;SDS011;67851;51.354;7.744;2023-03-04T13:51:18;11.90;;;9.23;;
78555;SDS011;67851;51.354;7.744;2023-03-04T13:53:52;25.10;;;17.63;;
78555;SDS011;67851;51.354;7.744;2023-03-04T14:04:26;12.43;;;8.60;;
78555;SDS011;67851;51.354;7.744;2023-03-04T14:06:54;14.73;;;10.40;;
78555;SDS011;67851;51.354;7.744;2023-03-04T14:09:25;12.13;;;8.35;;
78555;SDS011;67851;51.354;7.744;2023-03-04T14:12:11;12.48;;;8.45;;
78555;SDS011;67851;51.354;7.744;2023-03-04T14:14:49;16.27;;;8.38;;
78555;SDS011;67851;51.354;7.744;2023-03-04T14:17:17;12.10;;;8.52;;
78555;SDS011;67851;51.354;7.744;2023-03-04T14:19:44;11.80;;;8.35;;
78555;SDS011;67851;51.354;7.744;2023-03-04T14:22:30;13.85;;;8.63;;
78555;SDS011;67851;51.354;7.744;2023-03-04T14:24:59;15.13;;;7.75;;
78555;SDS011;67851;51.354;7.744;2023-03-04T14:27:43;13.10;;;9.35;;
78555;SDS011;67851;51.354;7.744;2023-03-04T14:30:23;13.93;;;8.18;;
78555;SDS011;67851;51.354;7.744;2023-03-04T14:32:52;13.70;;;8.82;;
78555;SDS011;67851;51.354;7.744;2023-03-04T14:35:21;11.80;;;8.10;;
78555;SDS011;67851;51.354;7.744;2023-03-04T14:37:51;17.98;;;8.40;;
78555;SDS011;67851;51.354;7.744;2023-03-04T14:40:34;19.20;;;10.32;;
78555;SDS011;67851;51.354;7.744;2023-03-04T14:45:29;14.00;;;7.40;;
78555;SDS011;67851;51.354;7.744;2023-03-04T14:47:56;10.52;;;7.18;;
78555;SDS011;67851;51.354;7.744;2023-03-04T14:50:25;15.63;;;7.68;;
78555;SDS011;67851;51.354;7.744;2023-03-04T14:55:34;12.82;;;6.22;;
78555;SDS011;67851;51.354;7.744;2023-03-04T14:58:07;12.90;;;6.63;;
78555;SDS011;67851;51.354;7.744;2023-03-04T15:00:46;11.25;;;6.30;;
78555;SDS011;67851;51.354;7.744;2023-03-04T15:03:23;13.77;;;6.68;;
78555;SDS011;67851;51.354;7.744;2023-03-04T15:05:50;11.43;;;6.68;;
78555;SDS011;67851;51.354;7.744;2023-03-04T15:08:34;13.07;;;7.35;;
78555;SDS011;67851;51.354;7.744;2023-03-04T15:11:03;11.57;;;6.65;;
78555;SDS011;67851;51.354;7.744;2023-03-04T15:13:37;12.27;;;6.28;;
78555;SDS011;67851;51.354;7.744;2023-03-04T15:16:11;13.50;;;7.25;;
78555;SDS011;67851;51.354;7.744;2023-03-04T15:18:38;16.77;;;7.82;;
78555;SDS011;67851;51.354;7.744;2023-03-04T15:23:43;18.70;;;6.18;;
78555;SDS011;67851;51.354;7.744;2023-03-04T15:26:09;15.25;;;6.63;;
78555;SDS011;67851;51.354;7.744;2023-03-04T15:28:37;11.50;;;6.18;;
78555;SDS011;67851;51.354;7.744;2023-03-04T15:31:03;9.68;;;5.38;;
78555;SDS011;67851;51.354;7.744;2023-03-04T15:33:29;13.80;;;5.97;;
78555;SDS011;67851;51.354;7.744;2023-03-04T15:35:56;9.13;;;4.80;;
78555;SDS011;67851;51.354;7.744;2023-03-04T15:38:23;15.80;;;6.45;;
78555;SDS011;67851;51.354;7.744;2023-03-04T15:40:49;12.98;;;5.93;;
78555;SDS011;67851;51.354;7.744;2023-03-04T15:43:16;12.23;;;4.90;;
78555;SDS011;67851;51.354;7.744;2023-03-04T15:45:44;15.63;;;5.60;;
78555;SDS011;67851;51.354;7.744;2023-03-04T15:48:11;10.35;;;5.15;;
78555;SDS011;67851;51.354;7.744;2023-03-04T15:50:42;17.35;;;5.05;;
78555;SDS011;67851;51.354;7.744;2023-03-04T15:53:27;18.50;;;5.18;;
78555;SDS011;67851;51.354;7.744;2023-03-04T15:55:57;19.02;;;4.43;;
78555;SDS011;67851;51.354;7.744;2023-03-04T15:58:23;9.27;;;4.18;;
78555;SDS011;67851;51.354;7.744;2023-03-04T16:00:49;13.73;;;4.10;;
78555;SDS011;67851;51.354;7.744;2023-03-04T16:03:16;12.98;;;3.63;;
78555;SDS011;67851;51.354;7.744;2023-03-04T16:05:43;13.02;;;3.65;;
78555;SDS011;67851;51.354;7.744;2023-03-04T16:08:13;6.00;;;2.13;;
78555;SDS011;67851;51.354;7.744;2023-03-04T16:10:41;11.80;;;3.47;;
78555;SDS011;67851;51.354;7.744;2023-03-04T16:13:15;13.85;;;2.08;;
78555;SDS011;67851;51.354;7.744;2023-03-04T16:15:41;15.18;;;2.90;;
78555;SDS011;67851;51.354;7.744;2023-03-04T16:18:11;14.70;;;3.25;;
78555;SDS011;67851;51.354;7.744;2023-03-04T16:20:37;10.75;;;3.20;;
78555;SDS011;67851;51.354;7.744;2023-03-04T16:23:03;7.63;;;3.05;;
78555;SDS011;67851;51.354;7.744;2023-03-04T16:25:30;12.82;;;3.05;;
78555;SDS011;67851;51.354;7.744;2023-03-04T16:27:56;15.23;;;3.70;;
78555;SDS011;67851;51.354;7.744;2023-03-04T16:30:26;22.27;;;4.53;;
78555;SDS011;67851;51.354;7.744;2023-03-04T16:32:52;9.25;;;2.95;;
78555;SDS011;67851;51.354;7.744;2023-03-04T16:35:18;10.52;;;2.88;;
78555;SDS011;67851;51.354;7.744;2023-03-04T16:37:45;14.18;;;3.97;;
78555;SDS011;67851;51.354;7.744;2023-03-04T16:40:12;11.20;;;3.00;;
78555;SDS011;67851;51.354;7.744;2023-03-04T16:42:39;15.90;;;4.18;;
78555;SDS011;67851;51.354;7.744;2023-03-04T16:45:06;14.90;;;3.22;;
78555;SDS011;67851;51.354;7.744;2023-03-04T16:47:39;13.05;;;2.65;;
78555;SDS011;67851;51.354;7.744;2023-03-04T16:50:05;17.98;;;2.95;;